Time;durP1;ratioP1;P1;durP2;ratioP2;P2;SDS_P1;SDS_P2;PMS_P1;PMS_P2;Temp;Humidity;BMP_temperature;BMP_pressure;BME280_temperature;BME280_humidity;BME280_pressure;Samples;Min_cycle;Max_cycle;Signal;HPM_P1;HPM_P2
2023/12/06 00:00:54;;;;;;;18.80;14.70;;;;;;;16.74;28.93;100186.33;104470;1260;59261;-60
2023/12/06 00:03:21;;;;;;;20.80;14.70;;;;;;;16.58;28.96;100188.14;104479;1255;59868;-61
2023/12/06 00:05:48;;;;;;;19.20;14.90;;;;;;;16.53;29.04;100190.16;104645;1255;72782;-62
2023/12/06 00:08:14;;;;;;;18.20;14.30;;;;;;;16.56;29.10;100191.80;104508;1259;69209;-61
2023/12/06 00:10:41;;;;;;;20.10;15.10;;;;;;;16.50;29.09;100188.06;104694;1253;142389;-61
2023/12/06 00:13:08;;;;;;;18.50;14.70;;;;;;;16.38;29.18;100186.28;104933;1256;59706;-61
2023/12/06 00:15:35;;;;;;;20.10;15.20;;;;;;;16.50;29.12;100190.58;104582;1257;59602;-62
2023/12/06 00:18:02;;;;;;;18.40;14.50;;;;;;;16.47;29.08;100186.45;105242;1256;72878;-61
2023/12/06 00:20:29;;;;;;;18.70;14.80;;;;;;;16.47;29.16;100188.79;104399;1253;70066;-61
2023/12/06 00:22:56;;;;;;;15.90;13.60;;;;;;;16.47;29.08;100194.10;104689;1259;72959;-62
2023/12/06 00:25:23;;;;;;;19.40;14.30;;;;;;;16.42;29.09;100191.54;104323;1256;59677;-61
2023/12/06 00:27:50;;;;;;;22.60;15.00;;;;;;;16.37;29.18;100184.59;104721;1254;60286;-63
2023/12/06 00:30:17;;;;;;;21.60;15.00;;;;;;;16.37;29.21;100184.77;104353;1253;73487;-63
2023/12/06 00:32:44;;;;;;;18.50;14.30;;;;;;;16.45;29.14;100185.56;104553;1253;69930;-63
2023/12/06 00:35:11;;;;;;;18.20;14.40;;;;;;;16.50;29.05;100187.54;104384;1256;72359;-63
2023/12/06 00:37:38;;;;;;;17.90;14.30;;;;;;;16.52;29.11;100187.77;104694;1253;61031;-63
2023/12/06 00:40:06;;;;;;;18.80;14.10;;;;;;;16.56;29.10;100189.30;104831;1253;60065;-64
2023/12/06 00:42:33;;;;;;;17.50;14.20;;;;;;;16.62;29.00;100185.27;104719;1260;73583;-63
2023/12/06 00:45:00;;;;;;;17.90;13.90;;;;;;;16.54;29.06;100180.03;104613;1256;69327;-64
2023/12/06 00:47:27;;;;;;;19.60;14.90;;;;;;;16.55;29.03;100179.30;104758;1255;73054;-62
2023/12/06 00:49:54;;;;;;;18.80;15.30;;;;;;;16.55;28.98;100178.01;104813;1255;59617;-62
2023/12/06 00:52:22;;;;;;;19.60;14.80;;;;;;;16.65;28.86;100177.61;104485;1255;60514;-63
2023/12/06 00:54:49;;;;;;;18.10;13.90;;;;;;;16.91;28.51;100177.85;104554;1255;72703;-63
2023/12/06 00:57:15;;;;;;;17.30;14.10;;;;;;;17.00;28.44;100180.02;105021;1253;69938;-66
2023/12/06 00:59:42;;;;;;;18.20;15.80;;;;;;;17.12;28.28;100179.42;104650;1259;72872;-63
2023/12/06 01:02:09;;;;;;;19.70;14.80;;;;;;;17.12;28.19;100182.45;104315;1255;60632;-63
2023/12/06 01:04:37;;;;;;;18.00;14.60;;;;;;;17.17;28.04;100180.21;104473;1256;60545;-62
2023/12/06 01:07:04;;;;;;;20.60;15.50;;;;;;;17.18;28.09;100180.67;104897;1254;72484;-63
2023/12/06 01:09:31;;;;;;;18.50;14.70;;;;;;;17.01;28.30;100175.50;104705;1259;69289;-63
2023/12/06 01:11:58;;;;;;;16.90;14.30;;;;;;;17.03;28.30;100179.62;104615;1260;73677;-63
2023/12/06 01:14:25;;;;;;;;;;;;;;;17.09;28.21;100175.52;104413;1254;59747;-63
2023/12/06 01:16:53;;;;;;;17.40;13.50;;;;;;;16.99;28.36;100172.26;104600;1252;59804;-63
2023/12/06 01:19:19;;;;;;;18.40;14.40;;;;;;;16.71;28.45;100171.64;104602;1253;73739;-63
2023/12/06 01:21:46;;;;;;;17.40;13.20;;;;;;;16.60;28.64;100164.46;104695;1253;69378;-63
2023/12/06 01:24:13;;;;;;;19.60;14.10;;;;;;;16.47;28.82;100163.29;104412;1252;72122;-64
2023/12/06 01:26:40;;;;;;;17.40;15.20;;;;;;;16.41;28.92;100157.48;104458;1259;61802;-64
2023/12/06 01:29:08;;;;;;;18.60;14.20;;;;;;;16.36;29.05;100154.55;104520;1256;61043;-63
2023/12/06 01:31:34;;;;;;;;;;;;;;;16.37;29.11;100149.93;104930;1259;73232;-63
2023/12/06 01:34:02;;;;;;;18.70;14.00;;;;;;;16.39;29.20;100148.41;104436;1264;69310;-64
2023/12/06 01:36:29;;;;;;;16.80;14.00;;;;;;;16.46;29.14;100145.48;104570;1257;72309;-63
2023/12/06 01:38:56;;;;;;;17.60;14.00;;;;;;;16.43;29.19;100150.64;104605;1268;59750;-64
2023/12/06 01:41:23;;;;;;;17.10;13.90;;;;;;;16.40;29.15;100150.45;105149;1253;59794;-64
2023/12/06 01:43:50;;;;;;;16.30;13.40;;;;;;;16.42;29.07;100155.64;104427;1275;72557;-63
2023/12/06 01:46:18;;;;;;;17.40;13.30;;;;;;;16.45;29.02;100158.30;104512;1257;68393;-63
2023/12/06 01:48:45;;;;;;;17.80;13.60;;;;;;;16.44;28.99;100158.85;104426;1254;71558;-63
2023/12/06 01:51:16;;;;;;;16.10;13.10;;;;;;;16.43;28.96;100157.51;104653;1253;60904;-63
2023/12/06 01:53:43;;;;;;;17.20;14.10;;;;;;;16.44;29.02;100154.64;104695;1264;60379;-63
2023/12/06 01:56:10;;;;;;;18.40;13.70;;;;;;;16.43;29.11;100152.04;104479;1265;72770;-62
2023/12/06 01:58:37;;;;;;;16.80;13.20;;;;;;;16.44;29.14;100146.30;104535;1269;69904;-63
2023/12/06 02:01:05;;;;;;;20.70;14.40;;;;;;;16.41;29.23;100146.67;104993;1253;72079;-64
2023/12/06 02:03:32;;;;;;;16.70;12.80;;;;;;;16.46;29.05;100143.38;104324;1258;61783;-62
2023/12/06 02:06:00;;;;;;;18.80;14.00;;;;;;;16.50;29.07;100147.03;104743;1253;61125;-62
2023/12/06 02:08:27;;;;;;;18.10;13.50;;;;;;;16.52;29.09;100143.70;104590;1253;72766;-67
2023/12/06 02:10:54;;;;;;;20.40;13.80;;;;;;;16.57;28.87;100143.79;104478;1257;69254;-62
2023/12/06 02:13:21;;;;;;;16.20;13.00;;;;;;;16.74;28.92;100141.54;104840;1257;72141;-62
2023/12/06 02:15:48;;;;;;;18.20;13.00;;;;;;;16.65;28.83;100142.40;104724;1253;61374;-63
2023/12/06 02:18:14;;;;;;;16.90;13.40;;;;;;;16.59;28.95;100143.84;104793;1256;59890;-63
2023/12/06 02:20:42;;;;;;;20.60;13.80;;;;;;;16.53;28.97;100146.11;104367;1259;73154;-62
2023/12/06 02:23:08;;;;;;;20.80;14.90;;;;;;;16.50;29.02;100146.48;104754;1259;69921;-61
2023/12/06 02:25:35;;;;;;;20.50;13.60;;;;;;;16.52;28.87;100146.17;104585;1267;71176;-62
2023/12/06 02:28:02;;;;;;;17.40;14.20;;;;;;;16.50;28.95;100147.21;105069;1257;59771;-62
2023/12/06 02:30:29;;;;;;;18.00;14.10;;;;;;;16.50;28.92;100150.00;104620;1257;59836;-61
2023/12/06 02:32:56;;;;;;;19.20;14.60;;;;;;;16.47;28.89;100140.11;104517;1253;73468;-61
2023/12/06 02:35:32;;;;;;;16.30;13.30;;;;;;;16.36;29.08;100146.82;104579;1257;69226;-59
2023/12/06 02:38:00;;;;;;;18.50;14.00;;;;;;;16.33;29.02;100150.50;104393;1255;73011;-60
2023/12/06 02:40:27;;;;;;;16.40;13.80;;;;;;;16.27;29.14;100149.25;104679;1269;60758;-60
2023/12/06 02:42:54;;;;;;;17.30;13.60;;;;;;;16.22;29.17;100147.77;104541;1254;60853;-60
2023/12/06 02:45:21;;;;;;;18.30;14.60;;;;;;;16.23;29.30;100144.16;104850;1258;72722;-60
2023/12/06 02:47:47;;;;;;;16.30;14.00;;;;;;;16.31;29.21;100140.34;104677;1256;69382;-60
2023/12/06 02:50:14;;;;;;;17.50;14.10;;;;;;;16.26;29.25;100137.12;104529;1254;72463;-61
2023/12/06 02:52:41;;;;;;;16.30;13.70;;;;;;;16.27;29.17;100141.09;104977;1259;61009;-61
2023/12/06 02:55:08;;;;;;;19.10;15.00;;;;;;;16.30;29.16;100139.00;104859;1253;59953;-61
2023/12/06 02:57:35;;;;;;;18.40;14.50;;;;;;;16.47;28.90;100138.50;104381;1259;71903;-60
2023/12/06 03:00:03;;;;;;;17.70;13.00;;;;;;;16.38;28.98;100140.30;104857;1256;70184;-60
2023/12/06 03:02:30;;;;;;;18.20;14.40;;;;;;;16.28;29.12;100144.92;104958;1253;72528;-61
2023/12/06 03:04:57;;;;;;;20.10;14.40;;;;;;;16.34;29.04;100148.86;104657;1257;61763;-61
2023/12/06 03:07:24;;;;;;;16.90;14.00;;;;;;;16.32;29.05;100149.87;104680;1256;60709;-61
2023/12/06 03:09:51;;;;;;;17.70;14.70;;;;;;;16.31;29.08;100146.90;104506;1256;73552;-61
2023/12/06 03:12:18;;;;;;;16.80;13.60;;;;;;;16.30;29.02;100142.55;104472;1257;68571;-61
2023/12/06 03:14:45;;;;;;;18.00;14.20;;;;;;;16.30;28.94;100141.50;104653;1257;72277;-61
2023/12/06 03:17:12;;;;;;;19.70;14.60;;;;;;;16.21;29.07;100136.14;104548;1258;60331;-60
2023/12/06 03:19:38;;;;;;;18.80;14.70;;;;;;;16.23;29.01;100137.65;104579;1255;60050;-61
2023/12/06 03:22:06;;;;;;;16.30;13.40;;;;;;;16.40;28.85;100140.89;104995;1256;72688;-62
2023/12/06 03:24:33;;;;;;;22.20;14.90;;;;;;;16.22;28.93;100136.64;104550;1259;69268;-61
2023/12/06 03:27:00;;;;;;;18.40;13.90;;;;;;;16.24;29.08;100134.05;104575;1258;72525;-61
2023/12/06 03:29:26;;;;;;;13.80;10.20;;;;;;;16.25;29.12;100134.70;104948;1258;60873;-61
2023/12/06 03:31:53;;;;;;;19.40;15.60;;;;;;;16.21;28.96;100134.95;104855;1254;59769;-61
2023/12/06 03:34:24;;;;;;;20.40;14.80;;;;;;;16.25;29.14;100139.77;104678;1256;73287;-62
2023/12/06 03:36:52;;;;;;;18.30;14.50;;;;;;;16.25;29.08;100140.53;107010;1253;69656;-61
2023/12/06 03:39:19;;;;;;;20.80;15.20;;;;;;;16.26;29.06;100137.46;108153;1253;71736;-62
2023/12/06 03:41:45;;;;;;;20.60;14.80;;;;;;;16.52;28.83;100130.77;104726;1256;59896;-62
2023/12/06 03:44:12;;;;;;;19.90;15.00;;;;;;;16.48;28.83;100124.86;105145;1259;59801;-62
2023/12/06 03:46:39;;;;;;;19.40;15.10;;;;;;;16.44;28.78;100124.04;104602;1257;72760;-61
2023/12/06 03:49:05;;;;;;;20.10;15.10;;;;;;;16.22;29.10;100121.80;104847;1256;70188;-61
2023/12/06 03:51:32;;;;;;;18.10;14.60;;;;;;;16.22;29.09;100124.25;105646;1256;72540;-60
2023/12/06 03:53:59;;;;;;;18.20;15.10;;;;;;;16.15;29.08;100126.62;104501;1267;61857;-60
2023/12/06 03:56:26;;;;;;;18.10;14.70;;;;;;;16.06;29.05;100126.21;104519;1254;60351;-61
2023/12/06 03:58:54;;;;;;;19.90;15.50;;;;;;;16.01;29.18;100132.00;104510;1254;73224;-63
2023/12/06 04:01:21;;;;;;;20.70;15.70;;;;;;;16.02;29.21;100131.42;104863;1256;70039;-61
2023/12/06 04:03:48;;;;;;;19.50;14.70;;;;;;;16.01;29.12;100137.15;104319;1270;72164;-61
2023/12/06 04:06:14;;;;;;;18.90;15.10;;;;;;;16.15;29.08;100138.30;104483;1264;60657;-60
2023/12/06 04:08:41;;;;;;;20.40;15.90;;;;;;;16.12;28.99;100144.79;104931;1254;60871;-66
2023/12/06 04:11:08;;;;;;;18.90;15.70;;;;;;;16.13;28.98;100150.75;104748;1257;73570;-61
2023/12/06 04:13:35;;;;;;;17.90;14.40;;;;;;;16.13;28.93;100157.85;104449;1275;69252;-61
2023/12/06 04:16:02;;;;;;;21.20;15.00;;;;;;;16.09;28.88;100158.61;105247;1257;71369;-61
2023/12/06 04:18:30;;;;;;;19.70;15.10;;;;;;;16.02;29.09;100156.88;104721;1256;60283;-61
2023/12/06 04:20:56;;;;;;;19.10;14.90;;;;;;;16.00;28.97;100151.71;104539;1256;60452;-62
2023/12/06 04:23:23;;;;;;;18.70;14.70;;;;;;;16.03;29.03;100147.46;104711;1256;73966;-62
2023/12/06 04:25:50;;;;;;;20.70;14.90;;;;;;;16.02;29.02;100149.66;104570;1274;68611;-62
2023/12/06 04:28:17;;;;;;;21.20;15.30;;;;;;;16.20;28.84;100152.83;104490;1257;72249;-62
2023/12/06 04:30:44;;;;;;;18.70;14.90;;;;;;;16.27;28.64;100152.10;104341;1264;61098;-62
2023/12/06 04:33:11;;;;;;;17.30;13.70;;;;;;;16.18;28.81;100150.52;104711;1266;60471;-63
2023/12/06 04:35:38;;;;;;;20.60;15.00;;;;;;;16.22;28.77;100155.19;104412;1257;73481;-62
2023/12/06 04:38:05;;;;;;;19.50;14.60;;;;;;;16.28;28.59;100152.52;104660;1253;70432;-63
2023/12/06 04:40:32;;;;;;;19.40;15.30;;;;;;;16.10;28.77;100148.63;104543;1268;73014;-61
2023/12/06 04:42:58;;;;;;;18.20;15.20;;;;;;;16.12;28.85;100148.52;104568;1254;61314;-61
2023/12/06 04:45:26;;;;;;;17.90;14.70;;;;;;;16.06;28.84;100146.55;104511;1257;60542;-60
2023/12/06 04:47:53;;;;;;;17.70;14.50;;;;;;;16.02;28.77;100152.98;104337;1256;74567;-61
2023/12/06 04:50:19;;;;;;;16.90;13.80;;;;;;;16.00;28.77;100156.83;104700;1257;69203;-61
2023/12/06 04:52:46;;;;;;;18.00;14.90;;;;;;;15.95;28.86;100159.06;104549;1257;73094;-60
2023/12/06 04:55:13;;;;;;;17.70;13.70;;;;;;;16.02;28.75;100163.42;104443;1259;60559;-61
2023/12/06 04:57:41;;;;;;;17.90;14.00;;;;;;;16.01;28.70;100163.88;104892;1256;61261;-62
2023/12/06 05:00:09;;;;;;;18.20;14.10;;;;;;;16.02;28.75;100168.42;104533;1265;74546;-60
2023/12/06 05:02:36;;;;;;;18.70;13.80;;;;;;;15.99;28.73;100164.35;104526;1258;70160;-61
2023/12/06 05:05:04;;;;;;;19.40;14.00;;;;;;;16.01;28.74;100164.55;104919;1257;71363;-62
2023/12/06 05:07:31;;;;;;;18.00;14.20;;;;;;;15.98;28.78;100162.27;104857;1254;61224;-61
2023/12/06 05:09:57;;;;;;;20.00;15.10;;;;;;;15.98;28.76;100161.91;104440;1256;60547;-61
2023/12/06 05:12:24;;;;;;;18.00;14.30;;;;;;;16.03;28.74;100169.02;104581;1257;73716;-61
2023/12/06 05:14:51;;;;;;;20.10;14.90;;;;;;;16.04;28.62;100170.73;104479;1257;69856;-60
2023/12/06 05:17:18;;;;;;;19.50;14.40;;;;;;;16.08;28.71;100168.56;104963;1257;73096;-61
2023/12/06 05:19:45;;;;;;;20.00;14.90;;;;;;;16.15;28.63;100169.61;104519;1270;60582;-61
2023/12/06 05:22:12;;;;;;;20.20;15.90;;;;;;;16.20;28.59;100168.98;104795;1256;60452;-61
2023/12/06 05:24:39;;;;;;;21.20;16.40;;;;;;;16.10;28.62;100165.08;104673;1258;73741;-61
2023/12/06 05:27:06;;;;;;;21.80;16.70;;;;;;;16.06;28.74;100164.63;104403;1257;70302;-61
2023/12/06 05:29:33;;;;;;;21.20;15.80;;;;;;;16.04;28.71;100170.74;104500;1254;72815;-61
2023/12/06 05:32:00;;;;;;;22.30;16.50;;;;;;;15.98;28.82;100167.38;104499;1258;60791;-61
2023/12/06 05:34:26;;;;;;;19.80;16.40;;;;;;;15.98;28.94;100166.12;104977;1256;60460;-68
2023/12/06 05:36:53;;;;;;;22.30;17.30;;;;;;;15.99;29.06;100165.91;105108;1256;73058;-60
2023/12/06 05:39:20;;;;;;;23.00;17.60;;;;;;;16.02;29.02;100172.27;104684;1260;70245;-61
2023/12/06 05:41:47;;;;;;;23.30;17.10;;;;;;;16.02;29.07;100170.14;104480;1270;71807;-61
2023/12/06 05:44:14;;;;;;;23.70;17.60;;;;;;;15.95;29.19;100168.61;104742;1253;61228;-60
2023/12/06 05:46:42;;;;;;;26.20;19.00;;;;;;;16.02;29.12;100171.05;104884;1255;60474;-60
2023/12/06 05:49:08;;;;;;;24.90;17.30;;;;;;;16.01;29.31;100164.05;104638;1264;74609;-61
2023/12/06 05:51:35;;;;;;;24.70;17.80;;;;;;;15.99;29.35;100163.45;104676;1260;69222;-60
2023/12/06 05:54:03;;;;;;;23.40;17.60;;;;;;;16.01;29.29;100165.27;104508;1261;72360;-60
2023/12/06 05:56:30;;;;;;;;;;;;;;;16.04;29.24;100166.30;104367;1257;60552;-60
2023/12/06 05:58:57;;;;;;;28.40;18.30;;;;;;;15.97;29.29;100170.60;104669;1258;60630;-61
2023/12/06 06:01:23;;;;;;;22.40;17.30;;;;;;;15.92;29.33;100172.64;104408;1257;74883;-61
2023/12/06 06:03:50;;;;;;;23.40;17.50;;;;;;;15.93;29.36;100172.04;104722;1256;68922;-60
2023/12/06 06:06:19;;;;;;;25.60;18.50;;;;;;;15.88;29.50;100171.98;104441;1255;72627;-60
2023/12/06 06:08:46;;;;;;;26.50;18.00;;;;;;;15.86;29.58;100175.64;104470;1267;61067;-61
2023/12/06 06:11:12;;;;;;;26.80;18.00;;;;;;;15.95;29.51;100178.67;104838;1273;59717;-61
2023/12/06 06:13:40;;;;;;;23.10;17.70;;;;;;;16.03;29.43;100178.91;105086;1257;74277;-62
2023/12/06 06:16:07;;;;;;;20.40;16.80;;;;;;;16.04;29.44;100181.02;104560;1257;69957;-60
2023/12/06 06:18:34;;;;;;;25.20;17.90;;;;;;;16.02;29.35;100178.96;104847;1257;72450;-60
2023/12/06 06:21:05;;;;;;;24.80;17.50;;;;;;;16.03;29.44;100175.94;104713;1254;60555;-60
2023/12/06 06:23:32;;;;;;;20.50;16.60;;;;;;;16.10;29.26;100180.98;104329;1269;60266;-61
2023/12/06 06:26:00;;;;;;;19.70;15.90;;;;;;;16.06;29.38;100182.14;104580;1258;74490;-61
2023/12/06 06:28:26;;;;;;;24.30;18.00;;;;;;;16.06;29.53;100182.84;104931;1257;69923;-60
2023/12/06 06:30:53;;;;;;;26.50;16.90;;;;;;;16.05;29.52;100185.20;104362;1275;73474;-60
2023/12/06 06:33:21;;;;;;;22.60;17.40;;;;;;;16.03;29.53;100184.77;104856;1263;61814;-60
2023/12/06 06:35:48;;;;;;;23.00;17.30;;;;;;;16.03;29.50;100190.41;104565;1273;60382;-61
2023/12/06 06:38:15;;;;;;;23.90;17.60;;;;;;;16.02;29.49;100188.57;104545;1255;74995;-61
2023/12/06 06:40:42;;;;;;;22.00;16.90;;;;;;;16.02;29.61;100194.71;104810;1254;69380;-61
2023/12/06 06:43:09;;;;;;;20.90;16.20;;;;;;;16.03;29.59;100192.91;104760;1266;72515;-60
2023/12/06 06:45:37;;;;;;;23.60;16.80;;;;;;;16.02;29.57;100195.79;104945;1253;60924;-61
2023/12/06 06:48:05;;;;;;;24.00;16.80;;;;;;;16.10;29.64;100199.74;104876;1253;60520;-60
2023/12/06 06:50:32;;;;;;;20.40;15.90;;;;;;;16.17;29.67;100200.05;104957;1257;74468;-61
2023/12/06 06:53:01;;;;;;;22.90;16.50;;;;;;;16.16;29.53;100202.08;104644;1254;68408;-61
2023/12/06 06:55:28;;;;;;;21.20;16.30;;;;;;;16.08;29.62;100208.36;104533;1258;72317;-61
2023/12/06 06:57:56;;;;;;;19.70;16.00;;;;;;;16.07;29.65;100209.98;104401;1257;60571;-62
2023/12/06 07:00:23;;;;;;;22.80;15.70;;;;;;;16.02;29.65;100209.05;104471;1264;60430;-62
2023/12/06 07:02:59;;;;;;;19.10;15.20;;;;;;;16.04;29.68;100209.84;104948;1257;74074;-64
2023/12/06 07:05:25;;;;;;;19.80;15.20;;;;;;;16.07;29.54;100214.56;104878;1257;69415;-64
2023/12/06 07:07:53;;;;;;;19.30;15.30;;;;;;;16.10;29.64;100214.06;104534;1263;72681;-62
2023/12/06 07:10:20;;;;;;;21.60;16.10;;;;;;;16.19;29.59;100212.16;104644;1257;60473;-62
2023/12/06 07:12:47;;;;;;;20.70;16.00;;;;;;;16.22;29.64;100213.58;104740;1254;60444;-63
2023/12/06 07:15:17;;;;;;;23.30;15.90;;;;;;;16.24;29.63;100219.11;105006;1254;73942;-62
2023/12/06 07:17:45;;;;;;;19.30;15.40;;;;;;;16.16;29.70;100213.58;104505;1257;70070;-65
2023/12/06 07:20:13;;;;;;;18.90;15.60;;;;;;;16.14;29.59;100215.45;104791;1274;71799;-64
2023/12/06 07:22:40;;;;;;;19.30;15.50;;;;;;;16.10;29.65;100216.92;104822;1258;60537;-66
2023/12/06 07:25:07;;;;;;;20.70;15.60;;;;;;;16.08;29.64;100221.98;104650;1256;60562;-67
2023/12/06 07:27:35;;;;;;;20.80;15.50;;;;;;;16.03;29.63;100220.48;104602;1265;73858;-66
2023/12/06 07:30:04;;;;;;;20.30;15.70;;;;;;;16.09;29.79;100217.34;105171;1254;69445;-61
2023/12/06 07:32:31;;;;;;;21.40;15.30;;;;;;;16.21;29.74;100219.30;104637;1271;71990;-60
2023/12/06 07:35:13;;;;;;;21.20;17.00;;;;;;;16.19;29.68;100221.19;104865;1257;60555;-61
2023/12/06 07:37:40;;;;;;;19.40;15.20;;;;;;;16.12;29.64;100219.80;104819;1254;60447;-64
2023/12/06 07:40:11;;;;;;;19.60;15.90;;;;;;;16.12;29.64;100222.08;108156;1254;73719;-62
2023/12/06 07:42:38;;;;;;;19.10;15.40;;;;;;;16.15;29.64;100220.86;106847;1254;69827;-60
2023/12/06 07:45:09;;;;;;;20.40;14.70;;;;;;;16.14;29.77;100221.27;106045;1253;73563;-60
2023/12/06 07:47:37;;;;;;;19.40;14.60;;;;;;;16.19;29.72;100219.42;106120;1254;60562;-60
2023/12/06 07:50:06;;;;;;;22.40;16.20;;;;;;;16.27;29.71;100219.46;107127;1254;60309;-61
2023/12/06 07:52:33;;;;;;;19.60;15.30;;;;;;;16.35;29.71;100221.16;104894;1254;72530;-60
2023/12/06 07:55:00;;;;;;;21.70;15.60;;;;;;;16.41;29.60;100223.80;104606;1254;69974;-61
2023/12/06 07:57:28;;;;;;;18.10;15.30;;;;;;;16.41;29.56;100228.96;104866;1257;71267;-61
2023/12/06 07:59:55;;;;;;;19.60;15.30;;;;;;;16.42;29.48;100227.46;104576;1257;60547;-60
2023/12/06 08:02:23;;;;;;;18.70;15.20;;;;;;;16.44;29.48;100231.42;104790;1257;60550;-60
2023/12/06 08:04:51;;;;;;;20.70;15.90;;;;;;;16.41;29.44;100230.16;104418;1254;74332;-60
2023/12/06 08:07:18;;;;;;;23.10;16.70;;;;;;;16.42;29.51;100235.77;104850;1254;69683;-61
2023/12/06 08:09:44;;;;;;;19.80;15.80;;;;;;;16.40;29.53;100237.52;104469;1256;72526;-60
2023/12/06 08:12:11;;;;;;;20.70;15.30;;;;;;;16.41;29.44;100239.02;104688;1254;60602;-60
2023/12/06 08:14:39;;;;;;;22.10;17.00;;;;;;;16.48;29.44;100234.54;104359;1256;60221;-59
2023/12/06 08:17:06;;;;;;;23.80;18.00;;;;;;;16.54;29.48;100235.61;104289;1267;74076;-60
2023/12/06 08:19:33;;;;;;;25.50;17.00;;;;;;;16.52;29.44;100235.18;105165;1254;70064;-60
2023/12/06 08:22:00;;;;;;;21.00;16.80;;;;;;;16.47;29.53;100238.46;106475;1253;72279;-61
2023/12/06 08:24:27;;;;;;;22.30;17.30;;;;;;;16.50;29.49;100241.69;107166;1254;61975;-60
2023/12/06 08:26:54;;;;;;;21.80;17.20;;;;;;;16.46;29.51;100240.48;105424;1255;60710;-60
2023/12/06 08:29:21;;;;;;;23.20;17.70;;;;;;;16.49;29.56;100241.19;105131;1254;73270;-61
2023/12/06 08:31:48;;;;;;;21.80;17.10;;;;;;;16.53;29.51;100240.27;107863;1254;70258;-61
2023/12/06 08:34:16;;;;;;;20.70;16.10;;;;;;;16.59;29.36;100242.20;105824;1254;71751;-60
2023/12/06 08:36:42;;;;;;;23.40;17.70;;;;;;;16.65;29.40;100239.96;104532;1257;60659;-60
2023/12/06 08:39:09;;;;;;;22.10;17.00;;;;;;;16.78;29.40;100240.95;105104;1256;60456;-63
2023/12/06 08:41:36;;;;;;;20.90;17.00;;;;;;;16.86;29.19;100243.70;105153;1254;73594;-59
2023/12/06 08:44:04;;;;;;;23.00;17.50;;;;;;;16.85;29.26;100241.95;104717;1260;69333;-61
2023/12/06 08:46:31;;;;;;;21.70;17.30;;;;;;;16.78;29.12;100240.23;104677;1257;72886;-60
2023/12/06 08:48:58;;;;;;;21.70;16.60;;;;;;;16.73;29.15;100235.73;104549;1254;60563;-61
2023/12/06 08:51:25;;;;;;;23.30;17.40;;;;;;;16.72;29.29;100233.66;104472;1254;60555;-61
2023/12/06 08:53:52;;;;;;;22.00;17.50;;;;;;;16.77;29.23;100238.16;104784;1254;73982;-61
2023/12/06 08:56:19;;;;;;;21.30;17.10;;;;;;;16.75;29.12;100237.40;104544;1255;70411;-61
2023/12/06 08:58:46;;;;;;;21.90;16.50;;;;;;;16.68;29.24;100237.97;104461;1257;73076;-61
2023/12/06 09:01:12;;;;;;;23.30;17.60;;;;;;;16.70;29.23;100229.90;104811;1264;62376;-60
2023/12/06 09:03:39;;;;;;;23.10;17.80;;;;;;;16.73;29.28;100229.17;105432;1254;60654;-60
2023/12/06 09:06:08;;;;;;;29.40;19.70;;;;;;;16.79;29.24;100231.36;105284;1256;74415;-61
2023/12/06 09:08:34;;;;;;;22.70;17.70;;;;;;;16.82;29.05;100232.25;107495;1254;69924;-61
2023/12/06 09:11:01;;;;;;;23.60;17.60;;;;;;;16.75;29.18;100228.21;104996;1253;72509;-60
2023/12/06 09:13:29;;;;;;;20.80;16.30;;;;;;;16.69;29.43;100228.22;104524;1257;60539;-60
2023/12/06 09:15:56;;;;;;;21.80;16.80;;;;;;;16.68;29.19;100225.63;105534;1254;60562;-58
2023/12/06 09:18:23;;;;;;;22.50;16.90;;;;;;;16.71;29.15;100225.59;104549;1264;73721;-59
2023/12/06 09:20:49;;;;;;;22.30;18.20;;;;;;;16.71;29.13;100226.84;104547;1258;69391;-59
2023/12/06 09:23:16;;;;;;;21.40;17.00;;;;;;;16.63;29.26;100223.61;104546;1256;71941;-59
2023/12/06 09:25:44;;;;;;;23.20;17.60;;;;;;;16.62;29.41;100219.95;104976;1254;60568;-59
2023/12/06 09:28:11;;;;;;;22.90;16.90;;;;;;;16.62;29.26;100222.62;104669;1255;60517;-58
2023/12/06 09:30:39;;;;;;;25.30;16.70;;;;;;;16.68;29.21;100218.54;104612;1257;74003;-61
2023/12/06 09:33:06;;;;;;;24.00;17.50;;;;;;;16.73;29.18;100222.83;104646;1254;69200;-61
2023/12/06 09:35:33;;;;;;;21.50;16.50;;;;;;;16.71;29.21;100220.29;105011;1254;72437;-61
2023/12/06 09:38:00;;;;;;;23.10;17.20;;;;;;;16.76;29.27;100214.87;105223;1253;61230;-61
2023/12/06 09:40:28;;;;;;;22.80;17.20;;;;;;;16.68;29.32;100215.36;104474;1253;60450;-60
2023/12/06 09:42:59;;;;;;;23.10;17.00;;;;;;;16.69;29.30;100216.33;104503;1254;72762;-61
2023/12/06 09:45:26;;;;;;;21.20;16.70;;;;;;;16.76;29.28;100215.05;104530;1255;70132;-60
2023/12/06 09:47:54;;;;;;;24.40;16.80;;;;;;;16.77;29.27;100211.83;104302;1254;72269;-61
2023/12/06 09:50:21;;;;;;;20.90;16.30;;;;;;;16.80;29.20;100211.10;105650;1254;60814;-62
2023/12/06 09:52:52;;;;;;;22.40;15.80;;;;;;;16.80;29.31;100205.60;104401;1253;60431;-61
2023/12/06 09:55:20;;;;;;;21.40;15.40;;;;;;;16.84;29.12;100207.54;104498;1270;73412;-61
2023/12/06 09:57:48;;;;;;;26.10;16.10;;;;;;;16.86;29.14;100211.65;104787;1257;71614;-61
2023/12/06 10:00:15;;;;;;;23.10;16.70;;;;;;;16.88;29.21;100214.85;104788;1257;72320;-61
2023/12/06 10:02:50;;;;;;;19.30;16.10;;;;;;;16.79;29.17;100208.33;104376;1257;60740;-60
2023/12/06 10:05:17;;;;;;;22.40;16.60;;;;;;;16.66;29.39;100212.78;105144;1254;60771;-61
2023/12/06 10:07:47;;;;;;;19.50;14.90;;;;;;;16.63;29.34;100212.96;105066;1256;73891;-60
2023/12/06 10:10:19;;;;;;;20.10;14.60;;;;;;;16.65;29.35;100214.25;105113;1260;69544;-61
2023/12/06 10:12:50;;;;;;;19.80;15.20;;;;;;;16.66;29.36;100212.59;104621;1254;72653;-61
2023/12/06 10:15:17;;;;;;;19.00;14.10;;;;;;;16.79;29.20;100212.23;104986;1253;61069;-61
2023/12/06 10:17:44;;;;;;;21.90;14.90;;;;;;;16.72;29.32;100216.30;104710;1254;60902;-61
2023/12/06 10:20:12;;;;;;;22.90;13.70;;;;;;;16.76;29.34;100219.44;104534;1257;73671;-61
2023/12/06 10:22:39;;;;;;;19.30;13.60;;;;;;;16.81;29.12;100215.64;104536;1255;70540;-62
2023/12/06 10:25:10;;;;;;;19.70;14.20;;;;;;;16.72;29.14;100216.67;106772;1253;72751;-61
2023/12/06 10:27:37;;;;;;;17.20;13.50;;;;;;;16.77;29.00;100216.06;108379;1253;60028;-60
2023/12/06 10:30:08;;;;;;;21.60;14.70;;;;;;;16.81;29.10;100214.23;108252;1253;60197;-60
2023/12/06 10:32:34;;;;;;;20.10;13.90;;;;;;;16.83;29.22;100212.50;108379;1253;73629;-60
2023/12/06 10:35:05;;;;;;;16.90;13.40;;;;;;;16.83;29.04;100209.30;107194;1253;69356;-60
2023/12/06 10:37:32;;;;;;;19.20;14.00;;;;;;;16.80;29.12;100206.64;104748;1260;72493;-60
2023/12/06 10:40:09;;;;;;;20.70;13.50;;;;;;;16.71;29.16;100204.35;104579;1259;60911;-60
2023/12/06 10:42:37;;;;;;;18.30;13.10;;;;;;;16.74;29.10;100204.03;104479;1256;60485;-60
2023/12/06 10:45:06;;;;;;;20.20;14.30;;;;;;;16.68;28.97;100202.79;104638;1255;74309;-60
2023/12/06 10:47:33;;;;;;;19.00;13.00;;;;;;;16.65;28.98;100204.52;104933;1253;69183;-60
2023/12/06 10:50:01;;;;;;;19.80;13.20;;;;;;;16.62;28.86;100205.77;105046;1257;72488;-60
2023/12/06 10:52:29;;;;;;;19.70;13.80;;;;;;;16.57;28.98;100199.14;104712;1260;61215;-60
2023/12/06 10:54:56;;;;;;;19.40;13.50;;;;;;;16.56;28.96;100193.02;104568;1254;59970;-61
2023/12/06 10:57:23;;;;;;;17.40;12.20;;;;;;;16.56;29.09;100193.55;104898;1256;74475;-61
2023/12/06 10:59:50;;;;;;;19.00;12.90;;;;;;;16.55;29.00;100187.95;104579;1254;69830;-60
2023/12/06 11:02:17;;;;;;;19.60;13.10;;;;;;;16.63;28.86;100189.45;104190;1260;72727;-60